createdAt,value
2022-08-23T00:02:36.241Z,99094.78
2022-08-23T00:05:41.521Z,99081.28
2022-08-23T00:08:48.457Z,99081.91
2022-08-23T00:11:55.833Z,99088.47
2022-08-23T00:15:02.551Z,99095.63
2022-08-23T00:18:07.820Z,99093.19
2022-08-23T00:21:13.234Z,99094.81
2022-08-23T00:24:19.169Z,99107.13
2022-08-23T00:27:24.435Z,99107.91
2022-08-23T00:30:31.927Z,99101.78
2022-08-23T00:33:38.809Z,99094.81
2022-08-23T00:36:45.016Z,99091.94
2022-08-23T00:39:50.729Z,99091.53
2022-08-23T00:43:15.442Z,99094.63
2022-08-23T00:46:48.462Z,99092.78
2022-08-23T00:49:56.414Z,99093.19
2022-08-23T00:53:04.274Z,99095.44
2022-08-23T00:56:10.574Z,99094.44
2022-08-23T00:59:15.750Z,99104.06
2022-08-23T01:02:22.729Z,99108.38
2022-08-23T01:05:31.352Z,99116.97
2022-08-23T01:08:38.362Z,99122.75
2022-08-23T01:11:46.926Z,99124.41
2022-08-23T01:14:55.553Z,99132.19
2022-08-23T01:18:04.567Z,99133.81
2022-08-23T01:21:13.562Z,99130.56
2022-08-23T01:24:57.796Z,99131.16
2022-08-23T01:27:46.193Z,99134.25
2022-08-23T01:30:51.870Z,99139.78
2022-08-23T01:33:59.498Z,99129.75
2022-08-23T01:37:07.224Z,99140.00
2022-08-23T01:40:15.273Z,99144.53
2022-08-23T01:43:21.761Z,99142.88
2022-08-23T01:46:27.387Z,99136.72
2022-08-23T01:49:32.577Z,99141.44
2022-08-23T01:52:38.519Z,99156.41
2022-08-23T01:55:53.800Z,99145.31
2022-08-23T01:58:59.178Z,99150.72
2022-08-23T02:02:05.343Z,99144.94
2022-08-23T02:05:11.236Z,99142.09
2022-08-23T02:08:34.009Z,99140.84
2022-08-23T02:11:41.723Z,99140.84
2022-08-23T02:14:47.000Z,99145.97
2022-08-23T02:17:53.117Z,99135.09
2022-08-23T02:20:58.634Z,99127.47
2022-08-23T02:24:06.402Z,99121.94
2022-08-23T02:27:14.853Z,99118.63
2022-08-23T02:30:21.112Z,99126.78
2022-08-23T02:33:26.171Z,99134.97
2022-08-23T02:36:31.865Z,99127.34
2022-08-23T02:39:38.829Z,99135.34
2022-08-23T02:42:45.912Z,99139.44
2022-08-23T02:45:52.040Z,99135.84
2022-08-23T02:48:57.536Z,99136.00
2022-08-23T02:52:02.789Z,99135.56
2022-08-23T02:55:08.556Z,99149.00
2022-08-23T02:58:15.388Z,99154.34
2022-08-23T03:01:21.662Z,99165.00
2022-08-23T03:04:27.031Z,99178.06
2022-08-23T03:07:32.512Z,99182.91
2022-08-23T03:10:43.380Z,99190.28
2022-08-23T03:13:50.796Z,99203.75
2022-08-23T03:16:58.355Z,99197.25
2022-08-23T03:20:03.955Z,99202.94
2022-08-23T03:23:08.936Z,99209.84
2022-08-23T03:26:14.560Z,99214.34
2022-08-23T03:29:21.517Z,99216.63
2022-08-23T03:32:27.404Z,99217.03
2022-08-23T03:35:32.992Z,99231.97
2022-08-23T03:38:38.642Z,99229.31
2022-08-23T03:41:43.909Z,99233.16
2022-08-23T03:44:50.345Z,99241.34
2022-08-23T03:48:02.628Z,99232.34
2022-08-23T03:51:07.793Z,99238.25
2022-08-23T03:54:12.878Z,99244.88
2022-08-23T03:57:18.224Z,99244.06
2022-08-23T04:00:24.763Z,99241.97
2022-08-23T04:03:29.919Z,99246.28
2022-08-23T04:06:35.481Z,99244.47
2022-08-23T04:09:41.129Z,99251.38
2022-08-23T04:12:50.226Z,99259.59
2022-08-23T04:15:57.361Z,99257.19
2022-08-23T04:19:03.153Z,99253.50
2022-08-23T04:22:13.572Z,99252.69
2022-08-23T04:25:34.519Z,99245.78
2022-08-23T04:28:40.948Z,99258.06
2022-08-23T04:31:48.955Z,99254.66
2022-08-23T04:34:53.944Z,99261.50
2022-08-23T04:37:58.871Z,99262.69
2022-08-23T04:41:21.900Z,99261.13
2022-08-23T04:44:27.252Z,99268.97
2022-08-23T04:47:34.872Z,99267.00
2022-08-23T04:50:40.605Z,99262.13
2022-08-23T04:53:47.029Z,99264.66
2022-08-23T04:56:52.720Z,99271.78
2022-08-23T04:59:58.212Z,99274.69
2022-08-23T05:03:04.813Z,99277.16
2022-08-23T05:06:10.193Z,99279.72
2022-08-23T05:09:20.370Z,99268.34
2022-08-23T05:12:25.840Z,99258.00
2022-08-23T05:15:31.051Z,99250.91
2022-08-23T05:18:37.744Z,99246.00
2022-08-23T05:21:42.929Z,99243.00
2022-08-23T05:24:48.409Z,99246.13
2022-08-23T05:27:57.225Z,99232.41
2022-08-23T05:31:04.163Z,99229.59
2022-08-23T05:34:11.092Z,99233.50
2022-08-23T05:37:16.897Z,99214.81
2022-08-23T05:40:22.512Z,99223.66
2022-08-23T05:43:28.218Z,99218.75
2022-08-23T05:46:33.433Z,99221.22
2022-08-23T05:49:40.313Z,99215.84
2022-08-23T05:52:50.373Z,99209.63
2022-08-23T05:55:56.072Z,99202.38
2022-08-23T05:59:02.337Z,99195.50
2022-08-23T06:02:07.633Z,99194.16
2022-08-23T06:05:14.133Z,99192.31
2022-08-23T06:08:20.316Z,99188.03
2022-08-23T06:11:26.544Z,99187.94
2022-08-23T06:14:32.191Z,99192.91
2022-08-23T06:17:37.633Z,99202.69
2022-08-23T06:20:44.139Z,99210.44
2022-08-23T06:23:49.644Z,99199.72
2022-08-23T06:26:54.842Z,99207.06
2022-08-23T06:29:59.864Z,99214.50
2022-08-23T06:33:05.513Z,99219.63
2022-08-23T06:36:14.433Z,99210.13
2022-08-23T06:39:20.416Z,99219.09
2022-08-23T06:42:41.258Z,99217.59
2022-08-23T06:45:52.405Z,99212.50
2022-08-23T06:49:05.543Z,99211.19
2022-08-23T06:52:12.497Z,99219.09
2022-08-23T06:55:18.522Z,99225.56
2022-08-23T06:58:24.065Z,99215.38
2022-08-23T07:01:47.989Z,99226.78
2022-08-23T07:04:55.944Z,99231.69
2022-08-23T07:08:02.655Z,99237.00
2022-08-23T07:11:07.913Z,99234.53
2022-08-23T07:14:19.096Z,99237.81
2022-08-23T07:17:24.060Z,99235.00
2022-08-23T07:20:29.533Z,99233.16
2022-08-23T07:23:36.489Z,99214.78
2022-08-23T07:26:41.846Z,99211.34
2022-08-23T07:29:47.081Z,99220.84
2022-08-23T07:32:52.719Z,99219.13
2022-08-23T07:35:57.553Z,99227.19
2022-08-23T07:39:05.852Z,99243.63
2022-08-23T07:42:23.412Z,99243.31
2022-08-23T07:45:29.161Z,99244.88
2022-08-23T07:48:53.045Z,99261.03
2022-08-23T07:51:59.961Z,99258.31
2022-08-23T07:55:07.424Z,99259.78
2022-08-23T07:58:12.992Z,99253.53
2022-08-23T08:01:19.719Z,99260.34
2022-08-23T08:04:24.907Z,99255.09
2022-08-23T08:07:35.436Z,99252.88
2022-08-23T08:10:44.543Z,99249.25
2022-08-23T08:13:50.946Z,99238.47
2022-08-23T08:16:58.582Z,99237.06
2022-08-23T08:20:04.109Z,99237.28
2022-08-23T08:23:09.260Z,99234.47
2022-08-23T08:26:16.151Z,99226.81
2022-08-23T08:29:21.248Z,99218.50
2022-08-23T08:32:26.627Z,99211.88
2022-08-23T08:35:32.742Z,99205.22
2022-08-23T08:38:50.267Z,99212.34
2022-08-23T08:42:05.466Z,99204.84
2022-08-23T08:45:12.406Z,99191.75
2022-08-23T08:48:21.507Z,99192.09
2022-08-23T08:51:33.508Z,99207.41
2022-08-23T08:54:39.256Z,99202.41
2022-08-23T08:57:47.259Z,99208.91
2022-08-23T09:00:56.553Z,99207.94
2022-08-23T09:04:02.287Z,99198.94
2022-08-23T09:07:12.162Z,99207.75
2022-08-23T09:10:28.296Z,99208.38
2022-08-23T09:13:53.776Z,99240.78
2022-08-23T09:17:05.655Z,99243.19
2022-08-23T09:20:11.928Z,99259.47
2022-08-23T09:23:20.025Z,99251.34
2022-08-23T09:26:26.179Z,99253.25
2022-08-23T09:29:34.841Z,99252.31
2022-08-23T09:32:42.131Z,99248.91
2022-08-23T09:36:03.340Z,99258.88
2022-08-23T09:39:09.983Z,99262.41
2022-08-23T09:42:27.988Z,99255.50
2022-08-23T09:45:35.970Z,99260.94
2022-08-23T09:48:42.736Z,99252.53
2022-08-23T09:51:54.214Z,99246.16
2022-08-23T09:55:01.227Z,99248.78
2022-08-23T09:58:08.260Z,99254.06
2022-08-23T10:01:20.429Z,99251.09
2022-08-23T10:04:31.075Z,99255.47
2022-08-23T10:07:38.440Z,99258.44
2022-08-23T10:10:50.986Z,99249.53
2022-08-23T10:17:35.237Z,99246.25
2022-08-23T10:20:43.081Z,99247.16
2022-08-23T10:23:52.266Z,99237.84
2022-08-23T10:27:34.960Z,99238.66
2022-08-23T10:30:47.522Z,99244.31
2022-08-23T10:34:01.009Z,99246.63
2022-08-23T10:37:14.397Z,99257.53
2022-08-23T10:40:25.737Z,99256.88
2022-08-23T10:43:36.120Z,99261.41
2022-08-23T10:46:46.508Z,99261.75
2022-08-23T10:49:53.904Z,99269.47
2022-08-23T10:53:04.018Z,99259.34
2022-08-23T10:56:13.539Z,99258.38
2022-08-23T10:59:20.929Z,99250.44
2022-08-23T11:02:31.639Z,99246.81
2022-08-23T11:05:40.545Z,99250.00
2022-08-23T11:08:47.920Z,99241.38
2022-08-23T11:12:07.355Z,99248.78
2022-08-23T11:15:44.790Z,99258.25
2022-08-23T11:18:51.645Z,99260.88
2022-08-23T11:22:13.631Z,99247.25
2022-08-23T11:25:33.656Z,99261.06
2022-08-23T11:28:43.199Z,99246.19
2022-08-23T11:31:52.137Z,99256.53
2022-08-23T11:35:04.005Z,99247.19
2022-08-23T11:38:10.856Z,99252.81
2022-08-23T11:41:23.565Z,99254.41
2022-08-23T11:44:34.780Z,99256.16
2022-08-23T11:47:41.600Z,99245.28
2022-08-23T11:50:58.103Z,99246.56
2022-08-23T11:54:22.657Z,99243.88
2022-08-23T11:57:36.784Z,99248.06
2022-08-23T12:00:56.097Z,99238.16
2022-08-23T12:04:08.301Z,99244.22
2022-08-23T12:07:13.765Z,99232.53
2022-08-23T12:10:24.468Z,99232.97
2022-08-23T12:13:33.645Z,99224.66
2022-08-23T12:16:44.141Z,99230.53
2022-08-23T12:19:58.237Z,99227.47
2022-08-23T12:23:14.043Z,99221.16
2022-08-23T12:26:26.688Z,99211.41
2022-08-23T12:29:39.674Z,99220.31
2022-08-23T12:32:50.567Z,99221.97
2022-08-23T12:36:01.822Z,99216.13
2022-08-23T12:39:11.906Z,99220.31
2022-08-23T12:42:20.003Z,99222.91
2022-08-23T12:45:27.020Z,99228.66
2022-08-23T12:48:33.667Z,99236.38
2022-08-23T12:51:43.107Z,99234.53
2022-08-23T12:54:54.996Z,99227.38
2022-08-23T12:58:00.252Z,99217.28
2022-08-23T13:01:08.847Z,99211.41
2022-08-23T13:04:15.711Z,99231.53
2022-08-23T13:07:23.355Z,99230.84
2022-08-23T13:10:28.529Z,99234.38
2022-08-23T13:13:33.959Z,99230.16
2022-08-23T13:16:44.987Z,99237.59
2022-08-23T13:19:51.161Z,99227.34
2022-08-23T13:22:57.586Z,99219.13
2022-08-23T13:26:17.613Z,99209.91
2022-08-23T13:29:24.388Z,99204.09
2022-08-23T13:32:41.742Z,99216.22
2022-08-23T13:35:49.760Z,99216.88
2022-08-23T13:38:56.199Z,99212.13
2022-08-23T13:42:01.455Z,99210.47
2022-08-23T13:45:13.832Z,99210.94
2022-08-23T13:48:22.293Z,99213.38
2022-08-23T13:51:30.063Z,99209.97
2022-08-23T13:54:35.857Z,99207.16
2022-08-23T13:57:41.325Z,99213.69
2022-08-23T14:00:55.390Z,99221.66
2022-08-23T14:04:02.644Z,99221.78
2022-08-23T14:07:08.014Z,99230.56
2022-08-23T14:10:13.657Z,99225.09
2022-08-23T14:13:20.926Z,99229.63
2022-08-23T14:16:33.407Z,99239.41
2022-08-23T14:20:32.943Z,99237.91
2022-08-23T14:23:11.933Z,99240.56
2022-08-23T14:26:19.385Z,99233.81
2022-08-23T14:29:25.006Z,99229.00
2022-08-23T14:32:30.693Z,99222.00
2022-08-23T14:35:37.696Z,99216.63
2022-08-23T14:38:42.858Z,99216.97
2022-08-23T14:41:52.090Z,99219.75
2022-08-23T14:44:57.753Z,99211.69
2022-08-23T14:48:02.988Z,99224.03
2022-08-23T14:51:18.301Z,99220.22
2022-08-23T14:54:25.248Z,99233.88
2022-08-23T14:57:30.594Z,99231.53
2022-08-23T15:00:36.933Z,99242.81
2022-08-23T15:03:42.928Z,99232.00
2022-08-23T15:07:16.128Z,99233.66
2022-08-23T15:13:55.584Z,99231.28
2022-08-23T15:17:01.219Z,99225.34
2022-08-23T15:20:07.250Z,99225.34
2022-08-23T15:23:14.049Z,99234.91
2022-08-23T15:26:21.494Z,99242.44
2022-08-23T15:29:27.070Z,99230.50
2022-08-23T15:32:33.191Z,99223.94
2022-08-23T15:35:39.899Z,99213.66
2022-08-23T15:38:48.231Z,99219.47
2022-08-23T15:41:53.757Z,99219.63
2022-08-23T15:44:59.293Z,99216.19
2022-08-23T15:48:06.962Z,99202.91
2022-08-23T15:51:13.209Z,99210.09
2022-08-23T15:54:19.565Z,99210.31
2022-08-23T15:57:28.046Z,99214.56
2022-08-23T16:00:33.681Z,99222.44
2022-08-23T16:03:42.253Z,99221.75
2022-08-23T16:06:48.194Z,99234.44
2022-08-23T16:09:54.746Z,99233.91
2022-08-23T16:12:59.969Z,99229.94
2022-08-23T16:16:05.636Z,99217.72
2022-08-23T16:19:11.110Z,99205.97
2022-08-23T16:22:16.860Z,99204.59
2022-08-23T16:25:23.872Z,99208.31
2022-08-23T16:28:29.478Z,99204.88
2022-08-23T16:31:38.558Z,99207.47
2022-08-23T16:34:44.879Z,99212.81
2022-08-23T16:37:50.689Z,99206.50
2022-08-23T16:40:57.968Z,99204.00
2022-08-23T16:44:03.623Z,99199.19
2022-08-23T16:47:09.869Z,99196.84
2022-08-23T16:50:15.208Z,99204.19
2022-08-23T16:53:20.653Z,99203.72
2022-08-23T16:56:28.497Z,99206.13
2022-08-23T16:59:39.732Z,99218.88
2022-08-23T17:02:46.170Z,99226.63
2022-08-23T17:05:51.225Z,99246.00
2022-08-23T17:08:56.116Z,99249.22
2022-08-23T17:12:03.250Z,99260.38
2022-08-23T17:15:09.208Z,99271.53
2022-08-23T17:18:14.219Z,99280.41
2022-08-23T17:21:19.772Z,99281.16
2022-08-23T17:24:25.557Z,99286.25
2022-08-23T17:27:32.508Z,99298.88
2022-08-23T17:30:37.580Z,99299.88
2022-08-23T17:33:43.224Z,99300.88
2022-08-23T17:36:49.618Z,99300.28
2022-08-23T17:39:54.691Z,99309.28
2022-08-23T17:43:01.828Z,99313.75
2022-08-23T17:46:07.201Z,99316.63
2022-08-23T17:49:12.973Z,99314.97
2022-08-23T17:52:18.965Z,99323.59
2022-08-23T17:55:24.084Z,99307.97
2022-08-23T17:58:31.609Z,99314.78
2022-08-23T18:01:37.156Z,99315.88
2022-08-23T18:04:42.338Z,99310.53
2022-08-23T18:07:47.341Z,99301.06
2022-08-23T18:10:52.320Z,99301.28
2022-08-23T18:13:59.324Z,99309.19
2022-08-23T18:17:04.502Z,99304.91
2022-08-23T18:20:11.772Z,99298.59
2022-08-23T18:23:17.388Z,99297.66
2022-08-23T18:26:40.496Z,99289.88
2022-08-23T18:29:51.698Z,99305.31
2022-08-23T18:32:57.710Z,99311.69
2022-08-23T18:36:07.811Z,99310.22
2022-08-23T18:39:14.857Z,99303.09
2022-08-23T18:42:20.584Z,99301.91
2022-08-23T18:45:27.200Z,99298.38
2022-08-23T18:48:33.144Z,99314.66
2022-08-23T18:51:38.969Z,99306.03
2022-08-23T18:54:44.191Z,99304.38
2022-08-23T18:57:50.108Z,99310.19
2022-08-23T19:00:57.119Z,99315.53
2022-08-23T19:04:03.644Z,99313.50
2022-08-23T19:07:08.881Z,99320.50
2022-08-23T19:10:19.725Z,99314.38
2022-08-23T19:13:25.554Z,99318.06
2022-08-23T19:16:33.080Z,99314.38
2022-08-23T19:19:38.306Z,99329.28
2022-08-23T19:22:44.253Z,99322.28
2022-08-23T19:25:49.464Z,99324.94
2022-08-23T19:28:54.645Z,99330.09
2022-08-23T19:32:04.281Z,99333.59
2022-08-23T19:35:12.879Z,99340.41
2022-08-23T19:38:18.557Z,99346.97
2022-08-23T19:41:24.440Z,99347.00
2022-08-23T19:44:31.305Z,99338.34
2022-08-23T19:47:40.394Z,99337.94
2022-08-23T19:50:46.724Z,99344.13
2022-08-23T19:54:10.899Z,99332.41
2022-08-23T19:57:17.187Z,99328.47
2022-08-23T20:00:23.885Z,99330.56
2022-08-23T20:03:30.781Z,99340.84
2022-08-23T20:06:36.562Z,99343.72
2022-08-23T20:09:41.979Z,99351.94
2022-08-23T20:12:47.426Z,99333.44
2022-08-23T20:15:56.094Z,99335.09
2022-08-23T20:19:03.615Z,99330.56
2022-08-23T20:22:26.542Z,99325.44
2022-08-23T20:25:32.030Z,99333.03
2022-08-23T20:28:36.993Z,99340.03
2022-08-23T20:31:48.238Z,99342.09
2022-08-23T20:34:54.921Z,99342.50
2022-08-23T20:38:00.071Z,99349.50
2022-08-23T20:41:05.706Z,99366.34
2022-08-23T20:44:12.065Z,99373.78
2022-08-23T20:47:17.601Z,99379.13
2022-08-23T20:50:24.131Z,99391.44
2022-08-23T20:53:29.796Z,99393.09
2022-08-23T20:56:35.267Z,99392.69
2022-08-23T20:59:44.382Z,99390.84
2022-08-23T21:02:50.268Z,99387.53
2022-08-23T21:06:04.286Z,99398.44
2022-08-23T21:09:10.653Z,99401.94
2022-08-23T21:12:15.794Z,99407.06
2022-08-23T21:15:20.988Z,99404.19
2022-08-23T21:18:26.196Z,99400.91
2022-08-23T21:21:33.087Z,99406.63
2022-08-23T21:24:38.603Z,99402.50
2022-08-23T21:27:43.844Z,99401.28
2022-08-23T21:30:49.463Z,99408.28
2022-08-23T21:33:55.545Z,99409.94
2022-08-23T21:37:02.485Z,99416.69
2022-08-23T21:40:08.329Z,99410.13
2022-08-23T21:43:13.980Z,99395.94
2022-08-23T21:46:19.062Z,99398.00
2022-08-23T21:49:24.468Z,99399.00
2022-08-23T21:52:30.715Z,99397.59
2022-08-23T21:55:36.901Z,99405.00
2022-08-23T21:58:42.596Z,99406.25
2022-08-23T22:01:48.427Z,99404.19
2022-08-23T22:04:53.983Z,99407.47
2022-08-23T22:08:01.025Z,99394.94
2022-08-23T22:11:07.447Z,99372.91
2022-08-23T22:14:16.644Z,99354.84
2022-08-23T22:17:22.142Z,99345.31
2022-08-23T22:20:27.397Z,99338.38
2022-08-23T22:23:34.377Z,99347.41
2022-08-23T22:26:39.415Z,99337.94
2022-08-23T22:29:46.475Z,99354.34
2022-08-23T22:32:52.096Z,99339.59
2022-08-23T22:36:02.959Z,99341.44
2022-08-23T22:39:09.853Z,99354.97
2022-08-23T22:42:16.425Z,99358.09
2022-08-23T22:45:21.356Z,99360.97
2022-08-23T22:48:27.236Z,99367.97
2022-08-23T22:51:33.589Z,99373.91
2022-08-23T22:54:39.829Z,99360.34
2022-08-23T22:57:45.404Z,99354.16
2022-08-23T23:00:50.768Z,99349.44
2022-08-23T23:03:57.246Z,99350.66
2022-08-23T23:07:02.753Z,99351.91
2022-08-23T23:10:10.272Z,99368.13
2022-08-23T23:13:15.582Z,99366.03
2022-08-23T23:16:22.060Z,99357.19
2022-08-23T23:19:45.959Z,99352.28
2022-08-23T23:22:52.045Z,99350.44
2022-08-23T23:25:59.059Z,99335.22
2022-08-23T23:29:05.019Z,99330.06
2022-08-23T23:32:10.604Z,99339.50
2022-08-23T23:35:16.158Z,99335.81
2022-08-23T23:38:21.239Z,99347.91
2022-08-23T23:41:27.605Z,99350.78
2022-08-23T23:44:32.669Z,99365.81
2022-08-23T23:47:37.804Z,99363.34
2022-08-23T23:50:45.231Z,99363.75
2022-08-23T23:53:53.005Z,99376.03
2022-08-23T23:57:00.279Z,99384.44
